sensor_id;sensor_type;location;lat;lon;timestamp;pressure;altitude;pressure_sealevel;temperature;humidity
15050;BME280;7622;42.724;23.250;2023-04-24T00:01:58;94433.75;;;11.96;100.00
15050;BME280;7622;42.724;23.250;2023-04-24T00:04:29;94432.41;;;11.92;100.00
15050;BME280;7622;42.724;23.250;2023-04-24T00:06:57;94433.41;;;11.99;100.00
15050;BME280;7622;42.724;23.250;2023-04-24T00:09:25;94414.97;;;11.84;100.00
15050;BME280;7622;42.724;23.250;2023-04-24T00:11:52;94431.81;;;11.72;100.00
15050;BME280;7622;42.724;23.250;2023-04-24T00:14:19;94425.06;;;11.62;100.00
15050;BME280;7622;42.724;23.250;2023-04-24T00:16:46;94377.13;;;11.30;100.00
15050;BME280;7622;42.724;23.250;2023-04-24T00:19:12;94428.50;;;11.62;100.00
15050;BME280;7622;42.724;23.250;2023-04-24T00:21:41;94436.47;;;11.61;100.00
15050;BME280;7622;42.724;23.250;2023-04-24T00:24:08;94431.91;;;11.55;100.00
15050;BME280;7622;42.724;23.250;2023-04-24T00:26:35;94426.72;;;11.63;100.00
15050;BME280;7622;42.724;23.250;2023-04-24T00:29:02;94433.16;;;11.76;100.00
15050;BME280;7622;42.724;23.250;2023-04-24T00:31:29;94368.72;;;11.36;100.00
15050;BME280;7622;42.724;23.250;2023-04-24T00:33:55;94429.25;;;11.47;100.00
15050;BME280;7622;42.724;23.250;2023-04-24T00:36:22;94429.50;;;11.35;100.00
15050;BME280;7622;42.724;23.250;2023-04-24T00:38:50;94433.06;;;11.34;100.00
15050;BME280;7622;42.724;23.250;2023-04-24T00:41:17;94424.63;;;11.32;100.00
15050;BME280;7622;42.724;23.250;2023-04-24T00:43:44;94425.66;;;10.96;100.00
15050;BME280;7622;42.724;23.250;2023-04-24T00:46:11;94423.06;;;10.96;100.00
15050;BME280;7622;42.724;23.250;2023-04-24T00:48:39;94424.28;;;10.84;100.00
15050;BME280;7622;42.724;23.250;2023-04-24T00:51:06;94422.84;;;10.89;100.00
15050;BME280;7622;42.724;23.250;2023-04-24T00:53:33;94422.84;;;10.89;100.00
15050;BME280;7622;42.724;23.250;2023-04-24T00:56:02;94429.06;;;10.71;100.00
15050;BME280;7622;42.724;23.250;2023-04-24T00:58:29;94426.78;;;10.93;100.00
15050;BME280;7622;42.724;23.250;2023-04-24T01:00:56;94420.72;;;10.85;100.00
15050;BME280;7622;42.724;23.250;2023-04-24T01:03:26;94405.72;;;10.79;100.00
15050;BME280;7622;42.724;23.250;2023-04-24T01:05:55;94407.66;;;10.77;100.00
15050;BME280;7622;42.724;23.250;2023-04-24T01:08:23;94406.88;;;11.02;100.00
15050;BME280;7622;42.724;23.250;2023-04-24T01:10:51;94403.00;;;11.06;100.00
15050;BME280;7622;42.724;23.250;2023-04-24T01:13:19;94403.13;;;10.79;100.00
15050;BME280;7622;42.724;23.250;2023-04-24T01:15:46;94401.34;;;10.79;100.00
15050;BME280;7622;42.724;23.250;2023-04-24T01:18:14;94394.06;;;10.83;100.00
15050;BME280;7622;42.724;23.250;2023-04-24T01:20:42;94402.47;;;10.77;100.00
15050;BME280;7622;42.724;23.250;2023-04-24T01:23:11;94399.19;;;10.75;100.00
15050;BME280;7622;42.724;23.250;2023-04-24T01:25:38;94377.50;;;10.84;100.00
15050;BME280;7622;42.724;23.250;2023-04-24T01:28:05;94399.72;;;10.78;100.00
15050;BME280;7622;42.724;23.250;2023-04-24T01:30:32;94401.72;;;10.66;100.00
15050;BME280;7622;42.724;23.250;2023-04-24T01:32:59;94392.75;;;10.61;100.00
15050;BME280;7622;42.724;23.250;2023-04-24T01:35:26;94390.38;;;10.68;100.00
15050;BME280;7622;42.724;23.250;2023-04-24T01:37:53;94385.13;;;10.59;100.00
15050;BME280;7622;42.724;23.250;2023-04-24T01:40:22;94392.63;;;10.45;100.00
15050;BME280;7622;42.724;23.250;2023-04-24T01:42:49;94371.69;;;10.46;100.00
15050;BME280;7622;42.724;23.250;2023-04-24T01:45:15;94373.47;;;10.46;100.00
15050;BME280;7622;42.724;23.250;2023-04-24T01:47:43;94374.81;;;10.50;100.00
15050;BME280;7622;42.724;23.250;2023-04-24T01:50:10;94386.16;;;10.66;100.00
15050;BME280;7622;42.724;23.250;2023-04-24T01:52:37;94385.47;;;10.82;100.00
15050;BME280;7622;42.724;23.250;2023-04-24T01:55:05;94388.09;;;10.64;100.00
15050;BME280;7622;42.724;23.250;2023-04-24T01:57:34;94340.19;;;10.41;100.00
15050;BME280;7622;42.724;23.250;2023-04-24T02:00:02;94387.34;;;10.54;100.00
15050;BME280;7622;42.724;23.250;2023-04-24T02:02:30;94374.91;;;10.40;100.00
15050;BME280;7622;42.724;23.250;2023-04-24T02:04:57;94348.66;;;10.43;100.00
15050;BME280;7622;42.724;23.250;2023-04-24T02:07:23;94383.25;;;10.70;100.00
15050;BME280;7622;42.724;23.250;2023-04-24T02:09:50;94387.72;;;10.59;100.00
15050;BME280;7622;42.724;23.250;2023-04-24T02:12:17;94380.03;;;10.50;100.00
15050;BME280;7622;42.724;23.250;2023-04-24T02:14:45;94387.88;;;10.40;100.00
15050;BME280;7622;42.724;23.250;2023-04-24T02:17:12;94306.28;;;9.89;100.00
15050;BME280;7622;42.724;23.250;2023-04-24T02:19:40;94379.16;;;10.14;100.00
15050;BME280;7622;42.724;23.250;2023-04-24T02:22:07;94380.88;;;10.05;100.00
15050;BME280;7622;42.724;23.250;2023-04-24T02:24:35;94366.63;;;9.92;100.00
15050;BME280;7622;42.724;23.250;2023-04-24T02:27:02;94375.91;;;9.94;100.00
15050;BME280;7622;42.724;23.250;2023-04-24T02:29:29;94373.66;;;9.81;100.00
15050;BME280;7622;42.724;23.250;2023-04-24T02:31:57;94374.72;;;9.88;100.00
15050;BME280;7622;42.724;23.250;2023-04-24T02:34:24;94361.41;;;9.74;100.00
15050;BME280;7622;42.724;23.250;2023-04-24T02:36:51;94355.56;;;9.72;100.00
15050;BME280;7622;42.724;23.250;2023-04-24T02:39:19;94345.91;;;9.82;100.00
15050;BME280;7622;42.724;23.250;2023-04-24T02:41:46;94352.16;;;9.89;100.00
15050;BME280;7622;42.724;23.250;2023-04-24T02:44:12;94353.16;;;9.88;100.00
15050;BME280;7622;42.724;23.250;2023-04-24T02:46:39;94349.19;;;9.66;100.00
15050;BME280;7622;42.724;23.250;2023-04-24T02:49:08;94362.78;;;9.68;100.00
15050;BME280;7622;42.724;23.250;2023-04-24T02:51:37;94346.19;;;9.61;100.00
15050;BME280;7622;42.724;23.250;2023-04-24T02:54:06;94341.50;;;9.74;100.00
15050;BME280;7622;42.724;23.250;2023-04-24T02:56:33;94347.72;;;9.81;100.00
15050;BME280;7622;42.724;23.250;2023-04-24T02:59:00;94340.44;;;9.67;100.00
15050;BME280;7622;42.724;23.250;2023-04-24T03:01:27;94353.28;;;9.86;100.00
15050;BME280;7622;42.724;23.250;2023-04-24T03:03:53;94333.75;;;9.65;100.00
15050;BME280;7622;42.724;23.250;2023-04-24T03:06:22;94351.56;;;9.77;100.00
15050;BME280;7622;42.724;23.250;2023-04-24T03:08:48;94357.56;;;9.78;100.00
15050;BME280;7622;42.724;23.250;2023-04-24T03:11:15;94359.59;;;10.02;100.00
15050;BME280;7622;42.724;23.250;2023-04-24T04:25:01;94366.72;;;12.06;100.00
15050;BME280;7622;42.724;23.250;2023-04-24T04:27:28;94374.66;;;11.97;100.00
15050;BME280;7622;42.724;23.250;2023-04-24T04:29:57;94375.69;;;11.70;100.00
15050;BME280;7622;42.724;23.250;2023-04-24T04:32:24;94373.31;;;11.84;100.00
15050;BME280;7622;42.724;23.250;2023-04-24T04:34:51;94380.59;;;11.73;100.00
15050;BME280;7622;42.724;23.250;2023-04-24T04:37:19;94376.72;;;11.77;100.00
15050;BME280;7622;42.724;23.250;2023-04-24T04:39:46;94369.31;;;11.64;100.00
15050;BME280;7622;42.724;23.250;2023-04-24T04:42:14;94385.50;;;11.76;100.00
15050;BME280;7622;42.724;23.250;2023-04-24T04:44:41;94387.53;;;11.64;100.00
15050;BME280;7622;42.724;23.250;2023-04-24T04:47:08;94398.88;;;11.81;100.00
15050;BME280;7622;42.724;23.250;2023-04-24T04:49:36;94399.50;;;11.75;100.00
15050;BME280;7622;42.724;23.250;2023-04-24T04:52:03;94402.09;;;11.83;100.00
15050;BME280;7622;42.724;23.250;2023-04-24T04:54:30;94395.75;;;11.77;100.00
15050;BME280;7622;42.724;23.250;2023-04-24T04:56:57;94398.09;;;11.97;100.00
15050;BME280;7622;42.724;23.250;2023-04-24T04:59:25;94380.03;;;11.95;100.00
15050;BME280;7622;42.724;23.250;2023-04-24T05:01:52;94396.44;;;11.54;100.00
15050;BME280;7622;42.724;23.250;2023-04-24T05:04:19;94404.47;;;12.10;100.00
15050;BME280;7622;42.724;23.250;2023-04-24T05:06:46;94403.88;;;11.74;100.00
15050;BME280;7622;42.724;23.250;2023-04-24T05:09:13;94372.06;;;11.89;100.00
15050;BME280;7622;42.724;23.250;2023-04-24T05:11:40;94376.91;;;11.75;100.00
15050;BME280;7622;42.724;23.250;2023-04-24T05:14:07;94399.69;;;11.90;100.00
15050;BME280;7622;42.724;23.250;2023-04-24T05:16:35;94386.38;;;11.93;100.00
15050;BME280;7622;42.724;23.250;2023-04-24T05:19:03;94401.88;;;12.02;100.00
15050;BME280;7622;42.724;23.250;2023-04-24T05:21:30;94395.56;;;12.21;100.00
15050;BME280;7622;42.724;23.250;2023-04-24T05:23:57;94380.72;;;12.13;100.00
15050;BME280;7622;42.724;23.250;2023-04-24T05:26:24;94386.28;;;12.27;100.00
15050;BME280;7622;42.724;23.250;2023-04-24T05:28:51;94377.72;;;11.84;100.00
15050;BME280;7622;42.724;23.250;2023-04-24T05:31:17;94392.28;;;12.19;100.00
15050;BME280;7622;42.724;23.250;2023-04-24T05:33:46;94387.91;;;12.19;100.00
15050;BME280;7622;42.724;23.250;2023-04-24T05:36:13;94292.59;;;11.60;100.00
15050;BME280;7622;42.724;23.250;2023-04-24T05:38:39;94405.53;;;12.58;98.60
15050;BME280;7622;42.724;23.250;2023-04-24T05:41:06;94381.44;;;12.48;98.46
15050;BME280;7622;42.724;23.250;2023-04-24T05:43:33;94379.13;;;12.45;99.58
15050;BME280;7622;42.724;23.250;2023-04-24T05:46:00;94407.81;;;12.53;100.00
15050;BME280;7622;42.724;23.250;2023-04-24T05:48:27;94402.78;;;12.84;99.53
15050;BME280;7622;42.724;23.250;2023-04-24T05:50:55;94398.53;;;13.15;100.00
15050;BME280;7622;42.724;23.250;2023-04-24T05:53:22;94378.03;;;13.67;88.77
15050;BME280;7622;42.724;23.250;2023-04-24T05:55:49;94395.00;;;14.02;81.99
15050;BME280;7622;42.724;23.250;2023-04-24T05:58:15;94401.47;;;14.45;78.77
15050;BME280;7622;42.724;23.250;2023-04-24T06:00:42;94387.66;;;14.59;75.00
15050;BME280;7622;42.724;23.250;2023-04-24T06:03:11;94398.00;;;14.76;73.08
15050;BME280;7622;42.724;23.250;2023-04-24T06:05:38;94395.25;;;14.46;73.10
15050;BME280;7622;42.724;23.250;2023-04-24T06:08:06;94392.44;;;14.79;71.72
15050;BME280;7622;42.724;23.250;2023-04-24T06:10:33;94389.59;;;15.03;68.62
15050;BME280;7622;42.724;23.250;2023-04-24T06:13:04;94382.56;;;15.56;65.87
15050;BME280;7622;42.724;23.250;2023-04-24T06:15:33;94271.00;;;15.11;64.14
15050;BME280;7622;42.724;23.250;2023-04-24T06:18:04;94376.72;;;16.04;62.64
15050;BME280;7622;42.724;23.250;2023-04-24T06:20:31;94379.81;;;15.93;62.56
15050;BME280;7622;42.724;23.250;2023-04-24T06:22:58;94305.53;;;15.35;63.62
15050;BME280;7622;42.724;23.250;2023-04-24T06:25:26;94405.28;;;15.99;63.98
15050;BME280;7622;42.724;23.250;2023-04-24T06:27:53;94413.81;;;15.87;64.32
15050;BME280;7622;42.724;23.250;2023-04-24T06:30:20;94399.31;;;16.20;65.18
15050;BME280;7622;42.724;23.250;2023-04-24T06:32:47;94404.69;;;16.33;67.61
15050;BME280;7622;42.724;23.250;2023-04-24T06:35:14;94399.13;;;16.22;64.22
15050;BME280;7622;42.724;23.250;2023-04-24T06:37:41;94401.09;;;16.70;63.67
15050;BME280;7622;42.724;23.250;2023-04-24T06:40:09;94401.22;;;16.83;62.96
15050;BME280;7622;42.724;23.250;2023-04-24T06:42:37;94403.06;;;17.39;59.60
15050;BME280;7622;42.724;23.250;2023-04-24T06:45:04;94399.91;;;18.19;58.06
15050;BME280;7622;42.724;23.250;2023-04-24T06:47:32;94396.25;;;18.13;56.95
15050;BME280;7622;42.724;23.250;2023-04-24T06:49:59;94385.06;;;17.98;57.22
15050;BME280;7622;42.724;23.250;2023-04-24T06:52:28;94392.72;;;17.93;57.55
15050;BME280;7622;42.724;23.250;2023-04-24T06:55:00;94394.25;;;18.22;56.75
15050;BME280;7622;42.724;23.250;2023-04-24T06:57:27;94392.44;;;18.22;56.70
15050;BME280;7622;42.724;23.250;2023-04-24T06:59:56;94387.94;;;18.57;55.55
15050;BME280;7622;42.724;23.250;2023-04-24T07:02:23;94383.06;;;18.61;55.25
15050;BME280;7622;42.724;23.250;2023-04-24T07:04:50;94390.19;;;18.67;55.00
15050;BME280;7622;42.724;23.250;2023-04-24T07:07:18;94368.75;;;19.09;54.88
15050;BME280;7622;42.724;23.250;2023-04-24T07:09:47;94389.81;;;18.96;53.82
15050;BME280;7622;42.724;23.250;2023-04-24T07:12:16;94372.81;;;18.79;53.79
15050;BME280;7622;42.724;23.250;2023-04-24T07:14:45;94359.56;;;18.46;54.53
15050;BME280;7622;42.724;23.250;2023-04-24T07:17:14;94380.00;;;18.50;54.42
15050;BME280;7622;42.724;23.250;2023-04-24T07:19:41;94375.91;;;18.41;55.23
15050;BME280;7622;42.724;23.250;2023-04-24T07:22:10;94247.97;;;17.88;54.68
15050;BME280;7622;42.724;23.250;2023-04-24T07:24:44;94240.28;;;17.86;54.28
15050;BME280;7622;42.724;23.250;2023-04-24T07:27:13;94377.88;;;19.00;54.27
15050;BME280;7622;42.724;23.250;2023-04-24T07:29:40;94374.59;;;19.77;52.79
15050;BME280;7622;42.724;23.250;2023-04-24T07:32:07;94369.38;;;20.22;51.83
15050;BME280;7622;42.724;23.250;2023-04-24T07:34:36;94341.78;;;20.24;50.99
15050;BME280;7622;42.724;23.250;2023-04-24T07:37:02;94349.88;;;20.29;51.26
15050;BME280;7622;42.724;23.250;2023-04-24T07:39:29;94358.19;;;20.71;50.80
15050;BME280;7622;42.724;23.250;2023-04-24T07:41:57;94358.56;;;20.43;50.96
15050;BME280;7622;42.724;23.250;2023-04-24T07:44:24;94366.16;;;20.64;50.48
15050;BME280;7622;42.724;23.250;2023-04-24T07:46:51;94360.38;;;20.80;50.48
15050;BME280;7622;42.724;23.250;2023-04-24T07:49:18;94346.34;;;20.80;50.42
15050;BME280;7622;42.724;23.250;2023-04-24T07:51:46;94359.84;;;21.28;50.15
15050;BME280;7622;42.724;23.250;2023-04-24T07:54:13;94059.22;;;19.89;49.18
15050;BME280;7622;42.724;23.250;2023-04-24T07:56:41;94352.19;;;21.63;48.67
15050;BME280;7622;42.724;23.250;2023-04-24T07:59:08;94261.78;;;21.36;48.26
15050;BME280;7622;42.724;23.250;2023-04-24T08:01:35;94252.38;;;21.40;47.86
15050;BME280;7622;42.724;23.250;2023-04-24T08:04:02;94333.09;;;21.61;48.81
15050;BME280;7622;42.724;23.250;2023-04-24T08:06:29;94272.78;;;20.83;49.04
15050;BME280;7622;42.724;23.250;2023-04-24T08:08:59;94342.44;;;22.00;47.92
15050;BME280;7622;42.724;23.250;2023-04-24T08:11:26;94314.31;;;22.06;47.95
15050;BME280;7622;42.724;23.250;2023-04-24T08:13:53;94343.97;;;21.71;48.51
15050;BME280;7622;42.724;23.250;2023-04-24T08:16:21;94342.84;;;21.11;49.04
15050;BME280;7622;42.724;23.250;2023-04-24T08:18:49;94349.94;;;21.17;49.14
15050;BME280;7622;42.724;23.250;2023-04-24T08:21:15;94335.94;;;21.59;48.55
15050;BME280;7622;42.724;23.250;2023-04-24T08:23:44;94283.84;;;22.15;47.49
15050;BME280;7622;42.724;23.250;2023-04-24T08:26:12;94240.25;;;22.06;47.16
15050;BME280;7622;42.724;23.250;2023-04-24T08:28:39;94265.72;;;22.18;47.44
15050;BME280;7622;42.724;23.250;2023-04-24T08:31:06;94303.13;;;22.52;47.22
15050;BME280;7622;42.724;23.250;2023-04-24T08:33:33;94304.03;;;22.87;46.26
15050;BME280;7622;42.724;23.250;2023-04-24T08:36:01;94310.47;;;22.50;46.48
15050;BME280;7622;42.724;23.250;2023-04-24T08:38:28;94219.59;;;21.96;46.75
15050;BME280;7622;42.724;23.250;2023-04-24T08:40:57;94312.94;;;23.04;46.25
15050;BME280;7622;42.724;23.250;2023-04-24T08:43:26;94297.75;;;23.58;45.31
15050;BME280;7622;42.724;23.250;2023-04-24T08:45:55;94298.78;;;23.69;45.36
15050;BME280;7622;42.724;23.250;2023-04-24T08:48:23;94302.75;;;24.46;44.15
15050;BME280;7622;42.724;23.250;2023-04-24T08:50:50;94135.16;;;22.71;44.83
15050;BME280;7622;42.724;23.250;2023-04-24T08:53:18;94284.59;;;23.51;44.83
15050;BME280;7622;42.724;23.250;2023-04-24T08:55:47;94273.81;;;23.93;44.39
15050;BME280;7622;42.724;23.250;2023-04-24T08:58:15;94287.66;;;24.35;43.84
15050;BME280;7622;42.724;23.250;2023-04-24T09:00:44;94270.75;;;24.24;43.76
15050;BME280;7622;42.724;23.250;2023-04-24T09:03:13;94173.19;;;23.23;44.19
15050;BME280;7622;42.724;23.250;2023-04-24T09:05:42;94278.56;;;23.79;44.48
15050;BME280;7622;42.724;23.250;2023-04-24T09:08:11;94269.97;;;23.61;44.99
15050;BME280;7622;42.724;23.250;2023-04-24T09:10:40;94257.06;;;23.29;45.33
15050;BME280;7622;42.724;23.250;2023-04-24T09:13:07;94180.63;;;22.45;45.70
15050;BME280;7622;42.724;23.250;2023-04-24T09:15:35;94162.13;;;22.03;46.05
15050;BME280;7622;42.724;23.250;2023-04-24T09:18:04;94219.16;;;21.99;47.01
15050;BME280;7622;42.724;23.250;2023-04-24T09:20:31;94250.75;;;22.12;46.71
15050;BME280;7622;42.724;23.250;2023-04-24T09:22:58;94226.66;;;22.44;46.52
15050;BME280;7622;42.724;23.250;2023-04-24T09:25:31;94224.22;;;22.84;46.03
15050;BME280;7622;42.724;23.250;2023-04-24T09:28:01;94198.63;;;23.36;45.27
15050;BME280;7622;42.724;23.250;2023-04-24T09:30:28;94135.25;;;22.29;45.90
15050;BME280;7622;42.724;23.250;2023-04-24T09:46:19;94170.75;;;23.22;44.14
15050;BME280;7622;42.724;23.250;2023-04-24T09:48:46;94164.34;;;22.94;44.20
15050;BME280;7622;42.724;23.250;2023-04-24T09:51:13;94242.84;;;23.70;43.54
15050;BME280;7622;42.724;23.250;2023-04-24T09:53:45;94191.63;;;22.83;44.55
15050;BME280;7622;42.724;23.250;2023-04-24T09:56:12;94246.69;;;24.03;43.01
15050;BME280;7622;42.724;23.250;2023-04-24T09:58:39;94211.75;;;24.67;42.22
15050;BME280;7622;42.724;23.250;2023-04-24T10:01:06;94079.13;;;24.44;41.31
15050;BME280;7622;42.724;23.250;2023-04-24T10:03:34;94154.63;;;25.42;41.02
15050;BME280;7622;42.724;23.250;2023-04-24T10:06:02;94212.72;;;26.15;40.09
15050;BME280;7622;42.724;23.250;2023-04-24T10:08:34;94201.06;;;26.21;40.07
15050;BME280;7622;42.724;23.250;2023-04-24T10:11:01;94197.16;;;25.20;40.81
15050;BME280;7622;42.724;23.250;2023-04-24T10:13:28;94196.03;;;24.04;42.36
15050;BME280;7622;42.724;23.250;2023-04-24T10:15:56;94171.13;;;23.65;42.79
15050;BME280;7622;42.724;23.250;2023-04-24T10:18:24;94197.50;;;23.83;43.19
15050;BME280;7622;42.724;23.250;2023-04-24T10:20:53;94091.75;;;23.75;42.72
15050;BME280;7622;42.724;23.250;2023-04-24T10:23:20;94086.19;;;24.22;41.68
15050;BME280;7622;42.724;23.250;2023-04-24T10:25:49;94092.47;;;25.26;40.47
15050;BME280;7622;42.724;23.250;2023-04-24T10:28:17;94162.84;;;25.40;40.15
15050;BME280;7622;42.724;23.250;2023-04-24T10:30:45;94164.09;;;24.61;41.45
15050;BME280;7622;42.724;23.250;2023-04-24T10:33:12;94180.38;;;23.91;42.29
15050;BME280;7622;42.724;23.250;2023-04-24T10:35:42;94178.53;;;23.63;43.09
15050;BME280;7622;42.724;23.250;2023-04-24T10:38:13;94079.50;;;23.17;43.00
15050;BME280;7622;42.724;23.250;2023-04-24T10:40:40;94168.97;;;23.90;42.37
15050;BME280;7622;42.724;23.250;2023-04-24T10:43:09;94059.59;;;23.72;41.81
15050;BME280;7622;42.724;23.250;2023-04-24T10:45:37;94052.28;;;23.62;41.82
15050;BME280;7622;42.724;23.250;2023-04-24T10:48:05;94165.53;;;23.38;42.52
15050;BME280;7622;42.724;23.250;2023-04-24T10:50:44;94117.53;;;22.42;44.75
15050;BME280;7622;42.724;23.250;2023-04-24T10:53:17;94157.78;;;22.20;44.89
15050;BME280;7622;42.724;23.250;2023-04-24T10:55:47;94159.66;;;22.43;44.77
15050;BME280;7622;42.724;23.250;2023-04-24T10:58:14;94158.28;;;22.40;44.33
15050;BME280;7622;42.724;23.250;2023-04-24T11:00:42;94150.63;;;22.09;44.70
15050;BME280;7622;42.724;23.250;2023-04-24T11:03:23;94088.72;;;21.57;45.04
15050;BME280;7622;42.724;23.250;2023-04-24T11:05:53;94046.16;;;21.17;44.61
15050;BME280;7622;42.724;23.250;2023-04-24T11:08:25;94059.94;;;21.19;45.03
15050;BME280;7622;42.724;23.250;2023-04-24T11:10:58;94077.13;;;20.73;45.87
15050;BME280;7622;42.724;23.250;2023-04-24T11:13:26;94086.06;;;20.29;46.56
15050;BME280;7622;42.724;23.250;2023-04-24T11:16:14;94085.88;;;19.37;50.68
15050;BME280;7622;42.724;23.250;2023-04-24T11:18:42;94049.66;;;18.10;69.95
15050;BME280;7622;42.724;23.250;2023-04-24T11:21:11;94179.28;;;18.17;80.80
15050;BME280;7622;42.724;23.250;2023-04-24T11:23:40;94197.81;;;17.69;85.62
15050;BME280;7622;42.724;23.250;2023-04-24T11:26:11;94182.75;;;17.50;91.91
15050;BME280;7622;42.724;23.250;2023-04-24T11:28:44;94189.72;;;17.78;91.48
15050;BME280;7622;42.724;23.250;2023-04-24T11:31:37;94178.25;;;18.77;79.25
15050;BME280;7622;42.724;23.250;2023-04-24T11:34:08;94147.69;;;19.41;73.27
15050;BME280;7622;42.724;23.250;2023-04-24T11:36:36;94171.28;;;20.05;78.83
15050;BME280;7622;42.724;23.250;2023-04-24T11:39:04;94151.13;;;19.79;79.14
15050;BME280;7622;42.724;23.250;2023-04-24T11:41:31;94161.16;;;20.27;80.76
15050;BME280;7622;42.724;23.250;2023-04-24T11:43:58;94152.47;;;20.20;74.25
15050;BME280;7622;42.724;23.250;2023-04-24T11:46:29;94138.84;;;19.66;68.98
15050;BME280;7622;42.724;23.250;2023-04-24T11:48:57;94142.25;;;19.74;64.34
15050;BME280;7622;42.724;23.250;2023-04-24T11:51:25;94153.38;;;19.82;67.20
15050;BME280;7622;42.724;23.250;2023-04-24T11:53:53;94151.97;;;19.35;71.08
15050;BME280;7622;42.724;23.250;2023-04-24T11:56:22;94118.00;;;19.20;66.66
15050;BME280;7622;42.724;23.250;2023-04-24T11:58:52;94005.28;;;18.46;67.27
15050;BME280;7622;42.724;23.250;2023-04-24T12:01:19;94137.94;;;19.48;66.17
15050;BME280;7622;42.724;23.250;2023-04-24T12:03:50;94130.03;;;19.48;66.37
15050;BME280;7622;42.724;23.250;2023-04-24T12:06:18;94115.84;;;19.49;66.84
15050;BME280;7622;42.724;23.250;2023-04-24T12:08:46;94118.75;;;19.72;66.06
15050;BME280;7622;42.724;23.250;2023-04-24T12:11:15;94044.84;;;19.22;64.55
15050;BME280;7622;42.724;23.250;2023-04-24T12:13:44;94126.66;;;19.72;63.90
15050;BME280;7622;42.724;23.250;2023-04-24T12:16:11;94110.50;;;19.62;65.19
15050;BME280;7622;42.724;23.250;2023-04-24T12:18:42;94139.78;;;19.47;65.97
15050;BME280;7622;42.724;23.250;2023-04-24T12:21:18;94005.88;;;18.48;67.08
15050;BME280;7622;42.724;23.250;2023-04-24T12:23:45;94128.59;;;19.01;65.67
15050;BME280;7622;42.724;23.250;2023-04-24T12:26:16;94100.97;;;19.16;65.87
15050;BME280;7622;42.724;23.250;2023-04-24T12:28:47;94094.31;;;19.14;61.87
15050;BME280;7622;42.724;23.250;2023-04-24T12:31:15;94094.09;;;19.15;61.95
15050;BME280;7622;42.724;23.250;2023-04-24T12:33:42;94086.03;;;19.10;63.76
15050;BME280;7622;42.724;23.250;2023-04-24T12:36:10;94084.28;;;19.36;61.98
15050;BME280;7622;42.724;23.250;2023-04-24T12:38:39;94089.38;;;19.69;61.32
15050;BME280;7622;42.724;23.250;2023-04-24T12:41:09;94076.00;;;19.70;60.06
15050;BME280;7622;42.724;23.250;2023-04-24T12:43:36;94071.00;;;19.87;59.09
15050;BME280;7622;42.724;23.250;2023-04-24T12:46:05;94066.38;;;20.07;58.72
15050;BME280;7622;42.724;23.250;2023-04-24T12:48:32;93939.06;;;19.57;58.56
15050;BME280;7622;42.724;23.250;2023-04-24T12:50:59;94034.66;;;20.14;56.25
15050;BME280;7622;42.724;23.250;2023-04-24T12:53:27;94039.50;;;20.17;56.16
15050;BME280;7622;42.724;23.250;2023-04-24T12:55:56;94039.66;;;20.47;56.38
15050;BME280;7622;42.724;23.250;2023-04-24T12:58:23;94024.31;;;20.37;54.77
15050;BME280;7622;42.724;23.250;2023-04-24T13:00:50;93930.66;;;19.91;54.21
15050;BME280;7622;42.724;23.250;2023-04-24T13:03:18;93927.84;;;19.86;53.41
15050;BME280;7622;42.724;23.250;2023-04-24T13:05:47;94037.09;;;20.58;54.76
15050;BME280;7622;42.724;23.250;2023-04-24T13:08:14;94027.84;;;20.86;54.09
15050;BME280;7622;42.724;23.250;2023-04-24T13:10:41;94022.09;;;20.89;52.38
15050;BME280;7622;42.724;23.250;2023-04-24T13:13:08;94015.91;;;21.13;51.33
15050;BME280;7622;42.724;23.250;2023-04-24T13:15:35;93885.28;;;20.86;50.33
15050;BME280;7622;42.724;23.250;2023-04-24T13:18:02;93917.56;;;21.29;49.54
15050;BME280;7622;42.724;23.250;2023-04-24T13:20:30;93836.00;;;21.21;48.93
15050;BME280;7622;42.724;23.250;2023-04-24T13:22:57;93983.56;;;22.64;46.51
15050;BME280;7622;42.724;23.250;2023-04-24T13:25:24;93994.75;;;23.06;46.13
15050;BME280;7622;42.724;23.250;2023-04-24T13:27:51;93994.50;;;23.36;45.47
15050;BME280;7622;42.724;23.250;2023-04-24T13:30:19;93952.19;;;22.84;46.02
15050;BME280;7622;42.724;23.250;2023-04-24T13:32:45;93980.44;;;23.35;45.06
15050;BME280;7622;42.724;23.250;2023-04-24T13:35:12;93979.44;;;23.25;44.94
15050;BME280;7622;42.724;23.250;2023-04-24T13:37:41;93954.69;;;23.02;43.83
15050;BME280;7622;42.724;23.250;2023-04-24T13:40:09;93882.56;;;22.44;43.91
15050;BME280;7622;42.724;23.250;2023-04-24T13:42:35;93963.16;;;22.76;44.53
15050;BME280;7622;42.724;23.250;2023-04-24T13:45:03;93955.53;;;22.39;45.25
15050;BME280;7622;42.724;23.250;2023-04-24T13:47:30;93918.00;;;22.43;45.32
15050;BME280;7622;42.724;23.250;2023-04-24T13:49:57;93967.28;;;22.84;45.41
15050;BME280;7622;42.724;23.250;2023-04-24T13:52:24;93969.34;;;22.93;45.11
15050;BME280;7622;42.724;23.250;2023-04-24T13:54:52;93958.47;;;22.66;45.10
15050;BME280;7622;42.724;23.250;2023-04-24T13:57:19;93953.84;;;22.10;45.88
15050;BME280;7622;42.724;23.250;2023-04-24T13:59:46;93950.03;;;22.06;45.46
15050;BME280;7622;42.724;23.250;2023-04-24T14:02:13;93943.13;;;21.82;45.87
15050;BME280;7622;42.724;23.250;2023-04-24T14:04:40;93942.47;;;21.98;46.15
15050;BME280;7622;42.724;23.250;2023-04-24T14:07:07;93934.03;;;21.78;45.88
15050;BME280;7622;42.724;23.250;2023-04-24T14:09:34;93845.88;;;21.37;45.83
15050;BME280;7622;42.724;23.250;2023-04-24T14:12:02;93897.13;;;21.59;45.14
15050;BME280;7622;42.724;23.250;2023-04-24T14:14:30;93930.13;;;21.80;45.27
15050;BME280;7622;42.724;23.250;2023-04-24T14:16:57;93852.44;;;21.46;45.55
15050;BME280;7622;42.724;23.250;2023-04-24T14:19:23;93918.09;;;21.96;44.95
15050;BME280;7622;42.724;23.250;2023-04-24T14:21:51;93913.22;;;21.93;44.72
15050;BME280;7622;42.724;23.250;2023-04-24T14:24:18;93913.22;;;21.93;44.78
15050;BME280;7622;42.724;23.250;2023-04-24T14:26:45;93899.66;;;22.01;44.96